Time;durP1;ratioP1;P1;durP2;ratioP2;P2;SDS_P1;SDS_P2;PMS_P1;PMS_P2;Temp;Humidity;BMP_temperature;BMP_pressure;BME280_temperature;BME280_humidity;BME280_pressure;Samples;Min_cycle;Max_cycle;Signal;HPM_P1;HPM_P2
2022/07/26 00:01:21;;;;;;;0.60;0.40;;;;;;;24.47;100.00;95144.41;5135932;27;20909;-55
2022/07/26 00:03:51;;;;;;;1.37;0.70;;;;;;;24.53;100.00;95159.22;5136009;27;20423;-55
2022/07/26 00:06:21;;;;;;;0.97;0.80;;;;;;;24.34;100.00;95151.13;5135190;27;20871;-55
2022/07/26 00:08:49;;;;;;;1.43;0.60;;;;;;;24.41;100.00;95154.75;5135618;27;20484;-55
2022/07/26 00:11:20;;;;;;;0.50;0.40;;;;;;;24.52;100.00;95163.84;5135476;27;20517;-55
2022/07/26 00:13:49;;;;;;;1.33;1.10;;;;;;;24.22;100.00;95114.19;5135418;27;20480;-55
2022/07/26 00:16:18;;;;;;;0.60;0.50;;;;;;;24.49;100.00;95159.16;5135439;27;20509;-55
2022/07/26 00:18:47;;;;;;;1.27;1.17;;;;;;;23.98;100.00;95085.47;5135666;27;20431;-55
2022/07/26 00:21:16;;;;;;;0.70;0.47;;;;;;;24.39;100.00;95137.28;5134861;27;21023;-55
2022/07/26 00:23:44;;;;;;;0.73;0.70;;;;;;;23.93;100.00;95069.53;5135294;27;21003;-55
2022/07/26 00:26:13;;;;;;;0.77;0.77;;;;;;;24.28;100.00;95128.22;5134819;27;20456;-56
2022/07/26 00:28:43;;;;;;;3.07;0.50;;;;;;;24.37;100.00;95145.00;5135195;27;20473;-55
2022/07/26 00:31:11;;;;;;;0.60;0.60;;;;;;;24.34;100.00;95145.72;5134927;27;20434;-55
2022/07/26 00:33:40;;;;;;;1.03;1.03;;;;;;;24.13;100.00;95115.56;5135430;27;20435;-55
2022/07/26 00:36:09;;;;;;;0.60;0.50;;;;;;;24.22;100.00;95143.19;5134948;27;20427;-56
2022/07/26 00:38:37;;;;;;;0.60;0.60;;;;;;;24.09;100.00;95152.59;5135025;27;20530;-55
2022/07/26 00:41:08;;;;;;;0.40;0.30;;;;;;;24.08;100.00;95126.69;5134906;27;21071;-55
2022/07/26 00:43:36;;;;;;;0.70;0.70;;;;;;;23.82;100.00;95073.19;5134557;27;20908;-55
2022/07/26 00:46:06;;;;;;;1.23;1.13;;;;;;;24.19;100.00;95133.06;5134880;27;21031;-54
2022/07/26 00:48:35;;;;;;;0.50;0.37;;;;;;;24.23;100.00;95150.16;5135183;27;20470;-55
2022/07/26 00:51:03;;;;;;;0.93;0.60;;;;;;;24.17;100.00;95146.19;5134990;27;20868;-56
2022/07/26 00:53:32;;;;;;;0.53;0.53;;;;;;;23.46;100.00;95035.75;5134770;27;21005;-55
2022/07/26 00:56:00;;;;;;;1.00;0.70;;;;;;;24.05;100.00;95151.72;5134637;27;20518;-55
2022/07/26 00:58:28;;;;;;;0.70;0.70;;;;;;;22.99;100.00;94979.19;5134614;27;20996;-55
2022/07/26 01:00:57;;;;;;;8.33;0.93;;;;;;;24.11;100.00;95153.06;5134459;27;20497;-55
2022/07/26 01:03:27;;;;;;;1.43;0.87;;;;;;;23.66;100.00;95146.34;5134737;27;20435;-55
2022/07/26 01:06:07;;;;;;;0.50;0.50;;;;;;;23.65;100.00;95136.66;5134691;27;20903;-55
2022/07/26 01:08:35;;;;;;;0.50;0.50;;;;;;;23.54;100.00;95092.38;5134656;27;20535;-55
2022/07/26 01:11:04;;;;;;;0.80;0.80;;;;;;;23.98;100.00;95142.31;5134413;27;20526;-55
2022/07/26 01:13:33;;;;;;;1.03;0.80;;;;;;;23.62;100.00;95080.56;5134624;27;20510;-55
2022/07/26 01:16:03;;;;;;;0.77;0.50;;;;;;;23.87;100.00;95122.41;5134532;27;20462;-55
2022/07/26 01:18:33;;;;;;;0.50;0.40;;;;;;;23.92;100.00;95137.56;5134230;27;20984;-55
2022/07/26 01:21:03;;;;;;;1.10;1.10;;;;;;;23.60;100.00;95142.38;5134040;27;20557;-55
2022/07/26 01:23:42;;;;;;;1.10;0.70;;;;;;;23.57;100.00;95140.38;5134596;27;20875;-55
2022/07/26 01:26:11;;;;;;;2.03;1.13;;;;;;;23.52;100.00;95134.44;5134105;27;20513;-55
2022/07/26 01:28:41;;;;;;;1.67;1.40;;;;;;;23.60;100.00;95138.88;5133975;27;20437;-55
2022/07/26 01:31:10;;;;;;;1.10;1.10;;;;;;;23.65;100.00;95119.66;5134101;27;20498;-55
2022/07/26 01:33:38;;;;;;;1.47;0.70;;;;;;;22.79;100.00;94988.44;5133470;27;20476;-55
2022/07/26 01:36:07;;;;;;;1.00;0.77;;;;;;;23.56;100.00;95136.09;5133863;27;20474;-55
2022/07/26 01:38:36;;;;;;;13.03;1.57;;;;;;;23.55;100.00;95129.13;5134100;27;20470;-55
2022/07/26 01:41:06;;;;;;;0.50;0.40;;;;;;;23.61;100.00;95133.09;5134026;27;20538;-55
2022/07/26 01:43:35;;;;;;;1.67;0.73;;;;;;;22.71;100.00;94977.47;5134226;27;20501;-55
2022/07/26 01:46:04;;;;;;;0.47;0.40;;;;;;;23.65;100.00;95128.56;5133965;27;20455;-55
2022/07/26 01:48:32;;;;;;;0.77;0.50;;;;;;;23.66;100.00;95107.66;5133845;27;20426;-55
2022/07/26 01:51:01;;;;;;;0.40;0.30;;;;;;;23.11;100.00;95041.22;5133654;27;20973;-55
2022/07/26 01:53:29;;;;;;;2.30;0.50;;;;;;;23.69;100.00;95115.06;5133114;27;20499;-55
2022/07/26 01:55:58;;;;;;;0.83;0.77;;;;;;;22.77;100.00;94998.81;5133077;27;20463;-55
2022/07/26 01:58:28;;;;;;;0.60;0.60;;;;;;;23.65;100.00;95133.19;5133348;27;20529;-55
2022/07/26 02:00:57;;;;;;;0.63;0.63;;;;;;;23.60;100.00;95126.13;5133730;27;20730;-55
2022/07/26 02:03:25;;;;;;;0.93;0.70;;;;;;;23.18;100.00;95087.34;5133557;27;20462;-55
2022/07/26 02:05:53;;;;;;;0.70;0.57;;;;;;;23.48;100.00;95128.94;5133641;27;20501;-55
2022/07/26 02:08:22;;;;;;;3.20;0.87;;;;;;;23.59;100.00;95132.66;5133258;27;20513;-55
2022/07/26 02:11:00;;;;;;;0.70;0.67;;;;;;;23.58;100.00;95135.75;5133564;27;20529;-55
2022/07/26 02:13:34;;;;;;;0.90;0.40;;;;;;;23.48;100.00;95130.91;5133421;27;20467;-55
2022/07/26 02:16:04;;;;;;;1.67;0.60;;;;;;;23.68;100.00;95141.34;5132891;27;20446;-55
2022/07/26 02:18:33;;;;;;;1.20;0.40;;;;;;;23.64;100.00;95143.22;5132921;27;20983;-55
2022/07/26 02:21:02;;;;;;;0.70;0.50;;;;;;;23.02;100.00;95060.34;5132875;27;21152;-55
2022/07/26 02:23:31;;;;;;;0.80;0.40;;;;;;;23.11;100.00;95087.19;5133057;27;20454;-55
2022/07/26 02:26:00;;;;;;;7.80;0.83;;;;;;;23.53;100.00;95134.06;5132944;27;20981;-55
2022/07/26 02:28:29;;;;;;;0.40;0.30;;;;;;;23.54;100.00;95134.88;5133278;27;20805;-55
2022/07/26 02:30:59;;;;;;;0.87;0.87;;;;;;;23.55;100.00;95137.25;5132878;27;20458;-55
2022/07/26 02:33:28;;;;;;;0.60;0.50;;;;;;;23.07;100.00;95089.81;5132656;27;20422;-55
2022/07/26 02:35:56;;;;;;;0.60;0.50;;;;;;;22.48;100.00;94989.25;5133021;27;20527;-55
2022/07/26 02:38:25;;;;;;;0.50;0.40;;;;;;;23.40;100.00;95140.78;5132831;27;20457;-55
2022/07/26 02:40:53;;;;;;;1.23;0.73;;;;;;;22.37;100.00;94964.72;5132141;27;20458;-55
2022/07/26 02:43:21;;;;;;;0.93;0.93;;;;;;;23.29;100.00;95102.66;5132794;27;20449;-55
2022/07/26 02:45:50;;;;;;;0.60;0.40;;;;;;;23.07;100.00;95078.22;5132689;27;20430;-55
2022/07/26 02:48:30;;;;;;;0.63;0.63;;;;;;;23.47;100.00;95140.94;5132720;27;20415;-55
2022/07/26 02:50:59;;;;;;;0.63;0.63;;;;;;;23.44;100.00;95138.94;5132518;27;20514;-56
2022/07/26 02:53:27;;;;;;;0.47;0.40;;;;;;;22.95;100.00;95086.44;5132867;28;20984;-56
2022/07/26 02:55:56;;;;;;;1.23;1.13;;;;;;;23.26;100.00;95141.22;5132970;28;20493;-56
2022/07/26 02:58:25;;;;;;;0.70;0.70;;;;;;;22.94;100.00;95101.91;5132922;28;20449;-56
2022/07/26 03:00:54;;;;;;;0.57;0.30;;;;;;;23.18;100.00;95141.41;5132501;28;20426;-56
2022/07/26 03:03:22;;;;;;;0.63;0.63;;;;;;;23.24;100.00;95154.31;5132285;28;21082;-56
2022/07/26 03:05:52;;;;;;;1.00;0.50;;;;;;;23.26;100.00;95154.75;5132554;28;20430;-56
2022/07/26 03:08:21;;;;;;;0.60;0.40;;;;;;;23.26;100.00;95152.03;5132837;28;20442;-56
2022/07/26 03:10:49;;;;;;;0.70;0.70;;;;;;;23.48;100.00;95150.59;5132309;28;20458;-56
2022/07/26 03:13:18;;;;;;;0.57;0.50;;;;;;;23.45;100.00;95148.63;5132768;28;20518;-56
2022/07/26 03:15:46;;;;;;;0.50;0.37;;;;;;;23.47;100.00;95154.44;5132353;28;20463;-56
2022/07/26 03:18:15;;;;;;;0.80;0.80;;;;;;;23.52;100.00;95153.38;5132340;28;20557;-55
2022/07/26 03:20:43;;;;;;;0.97;0.50;;;;;;;23.44;100.00;95165.19;5132368;28;20526;-55
2022/07/26 03:23:13;;;;;;;2.97;1.93;;;;;;;22.99;100.00;95180.00;5132579;28;20883;-55
2022/07/26 03:25:42;;;;;;;1.60;1.50;;;;;;;22.32;100.00;95174.81;5132218;28;20513;-55
2022/07/26 03:28:10;;;;;;;2.30;0.73;;;;;;;22.01;100.00;95173.63;5132334;28;20418;-56
2022/07/26 03:30:46;;;;;;;1.00;0.53;;;;;;;21.93;100.00;95177.28;5132137;28;20923;-56
2022/07/26 03:33:14;;;;;;;0.60;0.60;;;;;;;21.89;100.00;95181.78;5132669;28;20476;-53
2022/07/26 03:35:43;;;;;;;0.90;0.60;;;;;;;22.08;100.00;95189.25;5132119;28;20882;-53
2022/07/26 03:38:13;;;;;;;0.60;0.50;;;;;;;22.24;100.00;95190.03;5132204;28;20461;-54
2022/07/26 03:40:41;;;;;;;0.83;0.83;;;;;;;22.06;100.00;95192.28;5132688;28;20473;-54
2022/07/26 03:43:10;;;;;;;0.50;0.40;;;;;;;22.03;100.00;95190.28;5132215;28;20604;-55
2022/07/26 03:45:38;;;;;;;0.40;0.30;;;;;;;22.27;100.00;95191.28;5131085;28;20513;-55
2022/07/26 03:48:07;;;;;;;1.53;0.77;;;;;;;21.92;100.00;95191.09;5132115;28;20438;-55
2022/07/26 03:50:35;;;;;;;0.63;0.63;;;;;;;21.94;100.00;95186.94;5131412;28;20505;-55
2022/07/26 03:53:04;;;;;;;6.03;0.60;;;;;;;22.22;100.00;95189.63;5131707;28;20438;-55
2022/07/26 03:58:19;;;;;;;0.60;0.60;;;;;;;22.59;100.00;95185.56;5135352;27;20521;-55
2022/07/26 04:00:48;;;;;;;6.50;0.40;;;;;;;22.72;100.00;95183.59;5135449;27;20430;-55
2022/07/26 04:03:16;;;;;;;3.80;1.13;;;;;;;22.58;100.00;95185.91;5135483;27;20474;-55
2022/07/26 04:05:45;;;;;;;0.70;0.63;;;;;;;22.72;100.00;95178.19;5135030;27;20509;-54
2022/07/26 04:08:16;;;;;;;0.60;0.60;;;;;;;22.83;100.00;95191.94;5134911;27;20435;-55
2022/07/26 04:10:49;;;;;;;0.67;0.67;;;;;;;22.07;100.00;95120.19;5135300;27;20517;-55
2022/07/26 04:13:18;;;;;;;1.50;1.40;;;;;;;22.21;100.00;95188.06;5135120;27;20468;-55
2022/07/26 04:15:47;;;;;;;0.50;0.37;;;;;;;22.15;100.00;95135.44;5135071;27;20418;-55
2022/07/26 04:18:15;;;;;;;0.60;0.43;;;;;;;22.68;100.00;95180.03;5134821;27;20891;-55
2022/07/26 04:20:44;;;;;;;0.53;0.53;;;;;;;22.33;100.00;95184.50;5135411;27;20481;-55
2022/07/26 04:23:12;;;;;;;0.80;0.80;;;;;;;22.41;100.00;95180.84;5134849;27;20537;-55
2022/07/26 04:25:41;;;;;;;0.77;0.73;;;;;;;22.61;100.00;95180.63;5135081;27;20435;-54
2022/07/26 04:28:11;;;;;;;1.60;1.20;;;;;;;22.85;100.00;95181.56;5135231;27;20612;-54
2022/07/26 04:30:40;;;;;;;0.50;0.40;;;;;;;22.93;100.00;95178.69;5134183;27;20852;-55
2022/07/26 04:33:09;;;;;;;0.60;0.60;;;;;;;23.04;100.00;95177.03;5134743;27;20422;-55
2022/07/26 04:35:38;;;;;;;2.00;1.90;;;;;;;22.37;100.00;95188.84;5134809;27;20458;-55
2022/07/26 04:38:06;;;;;;;0.73;0.70;;;;;;;22.67;100.00;95181.94;5134856;27;20507;-55
2022/07/26 04:40:34;;;;;;;2.10;0.60;;;;;;;22.98;100.00;95180.34;5134894;27;20423;-55
2022/07/26 04:43:08;;;;;;;0.70;0.67;;;;;;;23.08;100.00;95180.59;5134602;27;20462;-55
2022/07/26 04:45:44;;;;;;;0.53;0.50;;;;;;;22.58;100.00;95157.00;5134795;27;20513;-67
2022/07/26 04:48:14;;;;;;;2.03;0.60;;;;;;;22.85;100.00;95186.97;5134328;27;20430;-55
2022/07/26 04:50:42;;;;;;;0.53;0.53;;;;;;;23.08;100.00;95182.50;5134741;27;20506;-59
2022/07/26 04:53:11;;;;;;;1.13;1.13;;;;;;;23.03;100.00;95137.63;5134748;27;20767;-56
2022/07/26 04:55:40;;;;;;;0.50;0.40;;;;;;;23.29;100.00;95188.41;5134666;27;20868;-56
2022/07/26 04:58:09;;;;;;;0.40;0.23;;;;;;;23.39;100.00;95182.50;5134580;27;20446;-55
2022/07/26 05:00:38;;;;;;;0.80;0.57;;;;;;;23.42;100.00;95186.41;5134139;27;20892;-55
2022/07/26 05:03:28;;;;;;;0.60;0.50;;;;;;;23.52;100.00;95181.22;5133915;27;20995;-55
2022/07/26 05:05:56;;;;;;;0.50;0.50;;;;;;;23.54;100.00;95176.25;5134141;27;20450;-55
2022/07/26 05:08:25;;;;;;;0.50;0.43;;;;;;;23.54;100.00;95172.75;5133466;27;20471;-55
2022/07/26 05:10:53;;;;;;;0.60;0.60;;;;;;;23.50;100.00;95180.81;5134207;27;20467;-55
2022/07/26 05:13:23;;;;;;;0.53;0.50;;;;;;;22.93;100.00;95154.38;5134009;27;20513;-53
2022/07/26 05:15:58;;;;;;;2.07;1.97;;;;;;;23.54;100.00;95173.53;5134308;27;20425;-54
2022/07/26 05:18:29;;;;;;;0.97;0.97;;;;;;;23.06;100.00;95128.00;5133735;27;20466;-54
2022/07/26 05:21:13;;;;;;;0.93;0.80;;;;;;;23.50;100.00;95175.41;5133664;27;20427;-54
2022/07/26 05:23:41;;;;;;;1.27;0.83;;;;;;;23.51;100.00;95174.25;5133773;27;20458;-54
2022/07/26 05:26:11;;;;;;;1.10;1.10;;;;;;;23.27;100.00;95183.38;5133568;27;20495;-54
2022/07/26 05:28:40;;;;;;;0.70;0.70;;;;;;;23.48;100.00;95180.34;5133516;27;20466;-54
2022/07/26 05:31:08;;;;;;;1.20;0.77;;;;;;;23.59;100.00;95175.97;5133551;27;20514;-54
2022/07/26 05:33:38;;;;;;;0.77;0.77;;;;;;;23.32;100.00;95193.13;5133916;27;20455;-60
2022/07/26 05:36:07;;;;;;;1.40;1.30;;;;;;;23.59;100.00;95173.25;5133636;27;20419;-60
2022/07/26 05:38:35;;;;;;;1.13;1.07;;;;;;;23.86;100.00;95183.09;5133738;27;20450;-60
2022/07/26 05:41:04;;;;;;;0.90;0.67;;;;;;;24.34;100.00;95175.50;5133446;27;20506;-61
2022/07/26 05:43:32;;;;;;;0.60;0.50;;;;;;;24.56;100.00;95174.75;5133423;27;20557;-61
2022/07/26 05:46:09;;;;;;;1.87;1.77;;;;;;;24.65;100.00;95169.88;5133619;27;20762;-61
2022/07/26 05:48:39;;;;;;;1.27;1.17;;;;;;;24.47;100.00;95176.91;5133349;27;20430;-60
2022/07/26 05:51:08;;;;;;;1.40;1.30;;;;;;;24.37;100.00;95167.47;5133332;27;20497;-60
2022/07/26 05:53:38;;;;;;;2.50;0.80;;;;;;;24.10;100.00;95175.84;5133558;27;20435;-60
2022/07/26 05:56:07;;;;;;;3.50;0.60;;;;;;;24.64;100.00;95158.25;5133324;27;20469;-61
2022/07/26 05:58:36;;;;;;;0.87;0.73;;;;;;;24.61;100.00;95158.19;5132717;27;20513;-62
2022/07/26 06:01:04;;;;;;;1.83;1.73;;;;;;;24.56;100.00;95150.38;5133077;27;20552;-61
2022/07/26 06:03:33;;;;;;;2.07;1.93;;;;;;;24.70;100.00;95153.31;5132820;27;20470;-61
2022/07/26 06:06:03;;;;;;;1.73;1.30;;;;;;;24.74;100.00;95148.75;5133201;27;20418;-61
2022/07/26 06:08:31;;;;;;;1.93;1.83;;;;;;;25.18;100.00;95144.41;5131908;27;20995;-61
2022/07/26 06:11:00;;;;;;;1.60;1.50;;;;;;;24.88;100.00;95107.53;5132765;27;20513;-62
2022/07/26 06:13:28;;;;;;;5.53;1.17;;;;;;;25.41;100.00;95151.69;5132974;27;20431;-62
2022/07/26 06:15:57;;;;;;;2.33;2.23;;;;;;;25.67;100.00;95151.69;5132616;27;20431;-62
2022/07/26 06:18:25;;;;;;;1.70;1.60;;;;;;;25.50;100.00;95147.56;5131766;27;20502;-62
2022/07/26 06:20:54;;;;;;;1.17;1.17;;;;;;;25.25;100.00;95158.06;5132481;27;20442;-63
2022/07/26 06:23:31;;;;;;;2.10;1.47;;;;;;;25.56;100.00;95143.41;5132089;27;20461;-63
2022/07/26 06:26:03;;;;;;;4.17;2.00;;;;;;;25.83;100.00;95149.56;5133029;27;20453;-64
2022/07/26 06:28:32;;;;;;;2.43;2.33;;;;;;;25.49;100.00;95147.94;5132441;27;20845;-64
2022/07/26 06:31:00;;;;;;;1.60;1.50;;;;;;;25.86;100.00;95146.09;5132861;27;20454;-61
2022/07/26 06:33:29;;;;;;;2.47;1.80;;;;;;;26.47;100.00;95142.88;5132867;27;20450;-59
2022/07/26 06:35:57;;;;;;;1.33;1.30;;;;;;;26.67;100.00;95138.00;5132716;27;20883;-57
2022/07/26 06:38:26;;;;;;;1.53;1.27;;;;;;;26.18;100.00;95132.91;5132689;27;20456;-57
2022/07/26 06:40:56;;;;;;;1.77;1.00;;;;;;;26.40;100.00;95137.38;5132664;27;20463;-57
2022/07/26 06:43:24;;;;;;;2.07;1.97;;;;;;;26.68;100.00;95134.94;5131707;27;20505;-58
2022/07/26 06:45:53;;;;;;;0.83;0.83;;;;;;;27.08;100.00;95132.16;5131122;27;20451;-58
2022/07/26 06:48:21;;;;;;;1.87;1.77;;;;;;;27.03;96.79;95093.63;5132632;27;20477;-58
2022/07/26 06:50:50;;;;;;;1.60;1.50;;;;;;;28.38;92.53;95125.75;5132647;27;20787;-58
2022/07/26 06:53:18;;;;;;;2.43;2.33;;;;;;;28.02;87.96;95130.34;5132409;28;20466;-57
2022/07/26 06:55:47;;;;;;;1.63;1.53;;;;;;;28.22;88.90;95122.59;5132157;28;20501;-57
2022/07/26 06:58:17;;;;;;;1.77;1.67;;;;;;;28.12;92.07;95126.06;5131659;28;20514;-58
2022/07/26 07:00:45;;;;;;;1.43;1.00;;;;;;;28.31;83.60;95065.75;5132383;28;20516;-57
2022/07/26 07:03:13;;;;;;;3.30;1.10;;;;;;;29.05;81.84;95116.81;5131797;28;20430;-59
2022/07/26 07:05:42;;;;;;;1.73;1.23;;;;;;;28.98;83.05;95120.34;5131907;28;20521;-59
2022/07/26 07:08:16;;;;;;;3.03;2.83;;;;;;;29.28;80.17;95118.00;5132050;28;20406;-59
2022/07/26 07:10:45;;;;;;;1.10;1.00;;;;;;;29.73;81.21;95110.06;5131985;28;20419;-58
2022/07/26 07:13:13;;;;;;;3.10;2.40;;;;;;;29.38;76.39;95119.13;5131511;28;20446;-61
2022/07/26 07:15:43;;;;;;;18.40;1.50;;;;;;;29.76;73.78;95114.72;5132024;28;20466;-61
2022/07/26 07:18:12;;;;;;;1.43;1.00;;;;;;;29.70;90.49;95114.38;5131984;28;20521;-61
2022/07/26 07:20:40;;;;;;;2.73;2.63;;;;;;;29.63;75.73;95117.09;5132509;28;20463;-61
2022/07/26 07:23:09;;;;;;;0.90;0.90;;;;;;;29.83;76.46;95112.75;5132223;28;20501;-61
2022/07/26 07:25:37;;;;;;;1.70;1.63;;;;;;;29.72;76.73;95114.75;5132198;28;20573;-62
2022/07/26 07:28:07;;;;;;;1.47;1.37;;;;;;;29.82;75.82;95113.16;5132095;28;20433;-62
2022/07/26 07:30:35;;;;;;;1.70;1.60;;;;;;;30.00;74.16;95111.94;5133610;27;20426;-62
2022/07/26 07:33:08;;;;;;;2.83;2.63;;;;;;;29.70;80.75;95103.44;5136459;27;20491;-60
2022/07/26 07:35:50;;;;;;;1.00;0.67;;;;;;;30.36;72.75;95104.28;5135943;27;20436;-60
2022/07/26 07:38:18;;;;;;;1.30;1.20;;;;;;;29.92;71.21;95104.94;5135554;27;20458;-61
2022/07/26 07:40:49;;;;;;;2.43;2.23;;;;;;;29.85;70.68;95104.97;5135699;27;20486;-60
2022/07/26 07:43:18;;;;;;;1.43;1.33;;;;;;;29.71;71.13;95106.94;5136045;27;20893;-60
2022/07/26 07:45:46;;;;;;;1.73;1.63;;;;;;;30.36;74.53;95106.28;5135725;27;20478;-60
2022/07/26 07:48:17;;;;;;;0.87;0.87;;;;;;;30.85;67.40;95108.63;5135679;27;20441;-60
2022/07/26 07:50:46;;;;;;;1.20;1.10;;;;;;;31.38;63.44;95103.47;5134520;27;20441;-60
2022/07/26 07:53:15;;;;;;;1.00;0.90;;;;;;;31.77;59.63;95102.28;5135398;27;20450;-60
2022/07/26 07:55:43;;;;;;;2.27;2.17;;;;;;;31.43;57.76;95102.22;5134380;27;20514;-60
2022/07/26 07:58:15;;;;;;;1.70;1.60;;;;;;;31.35;57.45;95098.78;5135555;27;20511;-60
2022/07/26 08:00:46;;;;;;;1.20;1.10;;;;;;;32.36;53.18;95095.22;5136065;27;20424;-61
2022/07/26 08:03:17;;;;;;;3.13;2.00;;;;;;;31.79;54.24;95099.91;5135378;27;20453;-61
2022/07/26 08:05:47;;;;;;;1.57;1.47;;;;;;;32.44;58.56;95093.94;5135424;27;20486;-61
2022/07/26 08:08:18;;;;;;;1.30;1.20;;;;;;;32.81;54.48;95090.25;5135476;27;20430;-61
2022/07/26 08:10:51;;;;;;;2.07;1.97;;;;;;;33.20;49.95;95078.63;5135747;27;20436;-61
2022/07/26 08:13:20;;;;;;;1.23;1.10;;;;;;;33.09;49.05;95080.78;5135514;27;20420;-62
2022/07/26 08:15:50;;;;;;;1.17;1.00;;;;;;;33.28;47.30;95079.25;5134903;27;20428;-62
2022/07/26 08:18:21;;;;;;;2.10;2.00;;;;;;;33.00;47.85;95077.78;5134874;27;20476;-62
2022/07/26 08:20:51;;;;;;;1.10;1.00;;;;;;;33.77;48.57;95070.88;5135196;27;20439;-62
2022/07/26 08:23:20;;;;;;;6.83;2.97;;;;;;;33.19;47.90;95069.59;5135542;27;20423;-62
2022/07/26 08:25:49;;;;;;;1.60;1.50;;;;;;;32.17;53.17;95065.72;5135243;27;20478;-62
2022/07/26 08:28:30;;;;;;;2.37;2.27;;;;;;;32.25;53.43;95060.91;5134870;27;20441;-62
2022/07/26 08:31:18;;;;;;;5.00;1.63;;;;;;;32.31;52.54;95065.50;5134809;27;20428;-62
2022/07/26 08:33:48;;;;;;;1.73;1.10;;;;;;;32.92;51.12;95043.38;5133929;27;20443;-62
2022/07/26 08:36:17;;;;;;;1.73;1.20;;;;;;;33.79;50.54;95046.47;5134818;27;20508;-62
2022/07/26 08:38:46;;;;;;;1.27;1.23;;;;;;;34.47;51.44;95048.50;5135055;27;20530;-62
2022/07/26 08:41:16;;;;;;;1.43;1.33;;;;;;;34.65;45.95;95043.38;5134077;27;20439;-61
2022/07/26 08:43:45;;;;;;;1.90;1.00;;;;;;;34.79;44.43;95036.72;5134809;27;20436;-62
2022/07/26 08:46:22;;;;;;;1.33;1.23;;;;;;;33.65;48.60;95000.03;5133914;27;20473;-62
2022/07/26 08:48:56;;;;;;;1.03;1.03;;;;;;;34.15;49.75;95034.72;5134887;27;20434;-62
2022/07/26 08:51:26;;;;;;;3.53;1.70;;;;;;;33.93;48.60;95033.63;5134574;27;20428;-62
2022/07/26 08:53:56;;;;;;;1.53;1.43;;;;;;;34.42;47.73;95038.78;5134359;27;20525;-62
2022/07/26 08:56:32;;;;;;;0.80;0.80;;;;;;;34.86;44.20;95022.81;5134542;27;20415;-61
2022/07/26 08:59:04;;;;;;;0.80;0.80;;;;;;;35.14;45.78;95011.06;5134352;27;20516;-57
2022/07/26 09:01:33;;;;;;;0.93;0.87;;;;;;;35.21;48.08;95021.91;5134377;27;20459;-57
2022/07/26 09:04:22;;;;;;;2.10;2.00;;;;;;;34.00;48.42;95038.97;5134222;27;20438;-57
2022/07/26 09:07:02;;;;;;;1.50;1.40;;;;;;;34.10;56.95;95011.25;5133977;27;20437;-58
2022/07/26 09:09:31;;;;;;;2.60;2.50;;;;;;;34.67;55.34;94979.63;5134247;27;20457;-57
2022/07/26 09:12:14;;;;;;;2.63;1.70;;;;;;;34.90;56.97;95029.75;5134168;27;20269;-57
2022/07/26 09:14:45;;;;;;;2.43;2.23;;;;;;;35.07;51.71;95022.25;5133945;27;20924;-57
2022/07/26 09:17:14;;;;;;;3.73;1.17;;;;;;;35.99;46.75;95027.97;5133678;27;20511;-57
2022/07/26 09:19:45;;;;;;;1.27;1.20;;;;;;;36.31;45.29;95016.72;5133856;27;20235;-57
2022/07/26 09:22:16;;;;;;;1.37;1.27;;;;;;;36.29;44.37;95006.16;5133945;27;20228;-57
2022/07/26 09:24:46;;;;;;;0.90;0.90;;;;;;;37.04;43.02;95015.53;5133775;27;20245;-57
2022/07/26 09:27:17;;;;;;;0.70;0.70;;;;;;;37.41;41.46;95011.13;5134152;27;20269;-58
2022/07/26 09:29:48;;;;;;;0.83;0.80;;;;;;;37.40;40.86;95004.81;5133778;27;20268;-58
2022/07/26 09:32:19;;;;;;;2.43;1.80;;;;;;;35.72;44.70;95009.81;5133902;27;20184;-56
2022/07/26 09:34:51;;;;;;;0.97;0.97;;;;;;;36.24;46.44;95003.94;5133699;27;20227;-56
2022/07/26 09:37:35;;;;;;;1.83;1.73;;;;;;;36.55;45.15;95000.63;5133868;27;20188;-57
2022/07/26 09:40:07;;;;;;;1.20;1.10;;;;;;;36.04;45.34;95000.63;5133894;27;20241;-57
2022/07/26 09:42:36;;;;;;;4.40;2.53;;;;;;;36.67;43.81;94999.81;5133198;27;20224;-57
2022/07/26 09:45:17;;;;;;;1.90;1.70;;;;;;;36.74;45.21;95005.09;5133316;27;20306;-56
2022/07/26 09:47:46;;;;;;;1.73;1.63;;;;;;;37.12;40.56;94993.97;5133449;27;20184;-57
2022/07/26 09:50:18;;;;;;;0.85;0.82;;;;;;;37.39;41.54;94996.97;5133079;27;20562;-57
2022/07/26 09:53:06;;;;;;;2.10;1.40;;;;;;;37.36;41.82;95000.63;5132636;27;20202;-57
2022/07/26 09:55:36;;;;;;;2.30;1.15;;;;;;;37.68;40.37;94993.94;5132774;27;20211;-57
2022/07/26 09:58:12;;;;;;;1.25;1.15;;;;;;;36.92;41.52;94988.72;5131134;27;20227;-57
2022/07/26 10:00:42;;;;;;;1.85;1.75;;;;;;;37.69;43.55;94989.94;5133262;27;20188;-57
2022/07/26 10:03:11;;;;;;;4.22;3.17;;;;;;;37.15;42.31;94982.00;5133005;27;20272;-57
2022/07/26 10:05:41;;;;;;;1.63;1.52;;;;;;;36.81;45.47;94989.06;5132874;27;20277;-57
2022/07/26 10:08:11;;;;;;;0.63;0.63;;;;;;;37.36;43.38;94984.81;5133048;27;20275;-57
2022/07/26 10:10:45;;;;;;;0.73;0.73;;;;;;;38.39;40.09;94972.63;5132847;27;20188;-58
2022/07/26 10:13:14;;;;;;;1.02;0.98;;;;;;;38.06;38.14;94966.78;5132753;27;20234;-57
2022/07/26 10:15:45;;;;;;;1.30;1.20;;;;;;;37.26;33.95;94977.66;5132414;27;20193;-57
2022/07/26 10:18:44;;;;;;;1.15;1.02;;;;;;;38.34;31.68;94971.22;5132133;27;20284;-58
2022/07/26 10:21:22;;;;;;;0.88;0.88;;;;;;;38.61;33.05;94967.75;5132490;27;20224;-58
2022/07/26 10:23:51;;;;;;;9.48;2.15;;;;;;;37.85;32.61;94968.38;5132891;27;20223;-57
2022/07/26 10:26:36;;;;;;;2.53;1.08;;;;;;;38.51;32.85;94960.66;5132408;27;20306;-57
2022/07/26 10:29:26;;;;;;;2.30;2.20;;;;;;;37.27;31.46;94970.91;5130277;27;20650;-57
2022/07/26 10:32:19;;;;;;;0.70;0.70;;;;;;;39.33;28.99;94955.97;5132393;27;20275;-57
2022/07/26 10:34:49;;;;;;;1.45;1.17;;;;;;;38.85;29.07;94959.66;5108518;27;20188;-57
2022/07/26 10:37:26;;;;;;;1.42;1.33;;;;;;;37.06;29.37;94858.38;5132166;27;20231;-57
2022/07/26 10:40:21;;;;;;;0.55;0.50;;;;;;;38.46;27.50;94956.47;5132067;27;20409;-57
2022/07/26 10:42:49;;;;;;;0.63;0.63;;;;;;;39.05;30.85;94944.13;5131980;27;20663;-57
2022/07/26 10:45:22;;;;;;;1.13;1.02;;;;;;;39.45;30.12;94938.38;5132194;27;20226;-57
2022/07/26 10:48:13;;;;;;;0.90;0.90;;;;;;;38.97;29.71;94936.56;5132152;27;20221;-57
2022/07/26 10:50:43;;;;;;;0.90;0.70;;;;;;;39.68;30.23;94934.19;5132249;27;20262;-57
2022/07/26 10:53:18;;;;;;;0.40;0.40;;;;;;;40.41;29.64;94924.34;5132112;27;20703;-57
2022/07/26 10:55:51;;;;;;;0.88;0.88;;;;;;;40.04;30.39;94923.00;5131821;28;20288;-57
2022/07/26 10:58:21;;;;;;;3.15;1.30;;;;;;;39.26;31.95;94926.56;5131957;28;20216;-57
2022/07/26 11:01:00;;;;;;;1.40;1.30;;;;;;;37.94;32.38;94926.16;5131874;28;20235;-57
2022/07/26 11:03:38;;;;;;;2.33;2.13;;;;;;;38.26;32.78;94922.88;5132213;28;20188;-57
2022/07/26 11:06:12;;;;;;;5.65;1.67;;;;;;;38.23;32.48;94921.00;5134367;27;20616;-57
2022/07/26 11:08:43;;;;;;;1.83;1.35;;;;;;;38.44;33.04;94916.63;5136223;27;20664;-57
2022/07/26 11:11:28;;;;;;;1.50;1.40;;;;;;;38.76;34.37;94896.72;5136234;27;20188;-57
2022/07/26 11:14:04;;;;;;;1.52;1.42;;;;;;;38.73;33.00;94912.25;5136179;27;20228;-57
2022/07/26 11:16:37;;;;;;;2.80;2.60;;;;;;;38.33;34.61;94900.47;5136165;27;20287;-57
2022/07/26 11:19:14;;;;;;;2.60;2.50;;;;;;;36.99;35.30;94842.03;5136004;27;20278;-58
2022/07/26 11:21:43;;;;;;;1.02;1.02;;;;;;;38.04;35.31;94900.06;5136126;27;20233;-57
2022/07/26 11:24:13;;;;;;;6.43;1.75;;;;;;;37.29;35.79;94901.34;5135900;27;20272;-57
2022/07/26 11:26:43;;;;;;;1.30;0.98;;;;;;;37.76;35.52;94893.63;5136276;27;20208;-58
2022/07/26 11:29:12;;;;;;;2.20;2.10;;;;;;;38.01;35.13;94892.66;5135870;27;20224;-58
2022/07/26 11:31:46;;;;;;;2.78;2.67;;;;;;;37.17;37.46;94885.59;5135857;27;20184;-57
2022/07/26 11:34:31;;;;;;;1.08;1.00;;;;;;;36.58;38.66;94881.00;5136047;27;20272;-58
2022/07/26 11:37:01;;;;;;;3.58;2.30;;;;;;;36.62;37.79;94879.66;5135701;27;20647;-58
2022/07/26 11:39:33;;;;;;;1.65;1.55;;;;;;;37.83;36.09;94871.22;5135809;27;20188;-57
2022/07/26 11:42:03;;;;;;;1.85;1.75;;;;;;;38.32;34.67;94871.25;5136095;27;20187;-58
2022/07/26 11:44:32;;;;;;;1.75;1.65;;;;;;;37.73;33.93;94778.34;5135508;27;20211;-57
2022/07/26 11:47:11;;;;;;;1.20;1.10;;;;;;;37.87;35.22;94866.34;5135342;27;20248;-57
2022/07/26 11:49:40;;;;;;;3.25;2.13;;;;;;;37.48;35.71;94869.84;5136101;27;20278;-56